createdAt,value
2023-01-29T00:02:58.676Z,71.18
2023-01-29T00:08:00.566Z,71.48
2023-01-29T00:13:02.084Z,71.96
2023-01-29T00:18:03.881Z,72.95
2023-01-29T00:23:05.377Z,73.33
2023-01-29T00:28:07.247Z,73.18
2023-01-29T00:33:08.743Z,72.97
2023-01-29T00:38:10.720Z,73.22
2023-01-29T00:43:30.437Z,73.44
2023-01-29T00:48:32.529Z,73.23
2023-01-29T00:53:34.045Z,73.17
2023-01-29T00:58:35.651Z,73.16
2023-01-29T01:03:42.474Z,72.78
2023-01-29T01:09:02.779Z,73.00
2023-01-29T01:14:04.273Z,73.11
2023-01-29T01:19:06.071Z,73.50
2023-01-29T01:24:07.782Z,72.88
2023-01-29T01:29:09.525Z,73.46
2023-01-29T01:34:11.356Z,73.35
2023-01-29T01:39:12.918Z,73.36
2023-01-29T01:44:51.584Z,73.60
2023-01-29T01:49:56.458Z,73.65
2023-01-29T01:55:00.093Z,73.57
2023-01-29T02:00:11.583Z,73.50
2023-01-29T02:05:32.872Z,73.81
2023-01-29T02:10:47.727Z,74.15
2023-01-29T02:15:50.659Z,74.18
2023-01-29T02:21:29.256Z,74.07
2023-01-29T02:26:55.424Z,73.68
2023-01-29T02:32:11.899Z,73.36
2023-01-29T02:37:14.426Z,73.33
2023-01-29T02:42:32.353Z,73.47
2023-01-29T02:47:57.516Z,73.55
2023-01-29T02:53:07.941Z,73.29
2023-01-29T02:58:28.070Z,73.60
2023-01-29T03:03:41.819Z,73.63
2023-01-29T03:08:50.104Z,73.52
2023-01-29T03:14:04.421Z,73.91
2023-01-29T03:19:10.901Z,73.90
2023-01-29T03:24:33.969Z,74.03
2023-01-29T03:29:56.841Z,74.40
2023-01-29T03:35:04.841Z,74.65
2023-01-29T03:40:08.201Z,74.63
2023-01-29T03:45:24.321Z,74.44
2023-01-29T03:50:37.450Z,74.03
2023-01-29T03:56:02.041Z,73.48
2023-01-29T04:01:06.953Z,73.45
2023-01-29T04:06:30.580Z,73.56
2023-01-29T04:11:36.159Z,73.67
2023-01-29T04:16:41.966Z,73.70
2023-01-29T04:21:45.393Z,73.83
2023-01-29T04:26:55.021Z,73.94
2023-01-29T04:32:11.346Z,74.52
2023-01-29T04:37:19.544Z,74.56
2023-01-29T04:42:31.267Z,74.41
2023-01-29T04:47:40.097Z,74.43
2023-01-29T04:52:47.585Z,74.26
2023-01-29T04:58:07.515Z,73.86
2023-01-29T05:03:13.421Z,73.86
2023-01-29T05:08:20.776Z,74.03
2023-01-29T05:13:24.687Z,74.05
2023-01-29T05:18:26.457Z,74.48
2023-01-29T05:23:28.276Z,74.95
2023-01-29T05:28:31.146Z,75.35
2023-01-29T05:33:32.650Z,74.90
2023-01-29T05:38:34.547Z,74.72
2023-01-29T05:43:36.378Z,74.35
2023-01-29T05:48:38.269Z,74.12
2023-01-29T05:53:39.948Z,74.53
2023-01-29T05:58:41.483Z,74.55
2023-01-29T06:03:43.738Z,74.53
2023-01-29T06:08:45.466Z,74.46
2023-01-29T06:13:47.893Z,75.00
2023-01-29T06:18:49.402Z,75.39
2023-01-29T06:23:53.803Z,75.64
2023-01-29T06:28:55.438Z,74.86
2023-01-29T06:33:57.117Z,74.65
2023-01-29T06:38:58.621Z,74.33
2023-01-29T06:44:00.249Z,74.23
2023-01-29T06:49:01.821Z,74.04
2023-01-29T06:54:03.522Z,74.52
2023-01-29T06:59:05.859Z,74.30
2023-01-29T07:04:07.675Z,74.38
2023-01-29T07:09:12.769Z,74.61
2023-01-29T07:14:14.800Z,74.52
2023-01-29T07:19:16.317Z,73.95
2023-01-29T07:24:19.479Z,73.41
2023-01-29T07:29:21.101Z,73.18
2023-01-29T07:34:22.576Z,72.69
2023-01-29T07:39:24.092Z,72.19
2023-01-29T07:44:25.564Z,72.27
2023-01-29T07:49:27.049Z,72.41
2023-01-29T07:54:28.852Z,73.22
2023-01-29T07:59:31.183Z,73.34
2023-01-29T08:04:32.683Z,72.57
2023-01-29T08:09:34.338Z,72.07
2023-01-29T08:14:36.087Z,71.21
2023-01-29T08:19:37.588Z,71.12
2023-01-29T08:24:53.324Z,70.89
2023-01-29T08:29:56.117Z,70.97
2023-01-29T08:34:57.712Z,70.32
2023-01-29T08:39:59.484Z,70.11
2023-01-29T08:45:01.010Z,69.50
2023-01-29T08:50:02.786Z,69.67
2023-01-29T08:55:04.656Z,69.32
2023-01-29T09:00:07.971Z,68.80
2023-01-29T09:05:10.219Z,68.00
2023-01-29T09:10:12.350Z,68.57
2023-01-29T09:15:13.924Z,67.78
2023-01-29T09:20:15.991Z,67.58
2023-01-29T09:25:17.936Z,67.45
2023-01-29T09:30:19.788Z,67.65
2023-01-29T09:35:23.038Z,67.19
2023-01-29T09:40:45.731Z,66.43
2023-01-29T09:45:58.647Z,66.12
2023-01-29T09:51:06.598Z,65.87
2023-01-29T09:56:18.578Z,65.30
2023-01-29T10:01:29.561Z,64.18
2023-01-29T10:06:47.669Z,64.24
2023-01-29T10:12:28.317Z,64.34
2023-01-29T10:17:54.096Z,64.02
2023-01-29T10:23:12.819Z,63.58
2023-01-29T10:28:18.700Z,61.96
2023-01-29T10:33:49.372Z,62.08
2023-01-29T10:38:56.393Z,62.27
2023-01-29T10:44:05.476Z,62.46
2023-01-29T10:49:37.903Z,63.29
2023-01-29T10:55:15.227Z,64.05
2023-01-29T11:00:25.003Z,64.52
2023-01-29T11:05:33.100Z,64.93
2023-01-29T11:10:42.008Z,65.01
2023-01-29T11:15:43.889Z,65.17
2023-01-29T11:20:47.117Z,65.60
2023-01-29T11:25:53.674Z,66.40
2023-01-29T11:30:55.517Z,66.77
2023-01-29T11:35:58.104Z,66.76
2023-01-29T11:41:18.834Z,67.03
2023-01-29T11:46:20.868Z,67.01
2023-01-29T11:51:27.088Z,67.36
2023-01-29T11:56:49.221Z,67.53
2023-01-29T12:01:50.821Z,68.05
2023-01-29T12:06:54.063Z,67.64
2023-01-29T12:11:56.217Z,67.42
2023-01-29T12:17:11.731Z,67.78
2023-01-29T12:22:31.404Z,68.18
2023-01-29T12:27:48.083Z,69.27
2023-01-29T12:32:55.623Z,69.84
2023-01-29T12:38:20.351Z,69.33
2023-01-29T12:43:27.593Z,69.80
2023-01-29T12:48:34.466Z,69.81
2023-01-29T12:53:42.216Z,70.05
2023-01-29T12:58:51.424Z,71.13
2023-01-29T13:04:02.726Z,71.49
2023-01-29T13:09:09.967Z,71.05
2023-01-29T13:14:33.348Z,71.11
2023-01-29T13:19:40.484Z,71.21
2023-01-29T13:24:55.508Z,71.79
2023-01-29T13:30:06.128Z,72.67
2023-01-29T13:35:14.941Z,73.14
2023-01-29T13:40:25.803Z,72.99
2023-01-29T13:45:35.109Z,73.29
2023-01-29T13:50:40.385Z,74.08
2023-01-29T13:55:41.967Z,74.42
2023-01-29T14:00:43.625Z,75.02
2023-01-29T14:05:58.434Z,75.17
2023-01-29T14:11:15.403Z,76.15
2023-01-29T14:16:16.932Z,77.52
2023-01-29T14:21:31.844Z,78.11
2023-01-29T14:26:43.681Z,78.19
2023-01-29T14:31:51.101Z,78.29
2023-01-29T14:36:56.768Z,79.53
2023-01-29T14:41:59.837Z,80.15
2023-01-29T14:47:01.357Z,80.39
2023-01-29T14:52:03.772Z,80.33
2023-01-29T14:57:09.048Z,80.44
2023-01-29T15:02:38.426Z,81.02
2023-01-29T15:07:49.530Z,81.43
2023-01-29T15:13:17.799Z,81.79
2023-01-29T15:18:43.893Z,82.14
2023-01-29T15:23:48.907Z,82.52
2023-01-29T15:29:04.156Z,82.80
2023-01-29T15:34:07.741Z,82.88
2023-01-29T15:39:09.244Z,82.96
2023-01-29T15:44:16.820Z,82.94
2023-01-29T15:49:38.003Z,83.18
2023-01-29T15:54:39.727Z,83.95
2023-01-29T15:59:44.986Z,84.38
2023-01-29T16:04:46.837Z,84.90
2023-01-29T16:09:49.859Z,85.02
2023-01-29T16:14:52.584Z,85.52
2023-01-29T16:20:01.401Z,85.87
2023-01-29T16:25:12.504Z,85.42
2023-01-29T16:30:16.538Z,84.94
2023-01-29T16:35:19.082Z,85.46
2023-01-29T16:40:27.219Z,85.41
2023-01-29T16:45:29.609Z,85.88
2023-01-29T16:50:40.671Z,85.98
2023-01-29T16:55:49.659Z,85.53
2023-01-29T17:01:13.706Z,85.22
2023-01-29T17:06:26.644Z,85.63
2023-01-29T17:11:31.213Z,86.26
2023-01-29T17:16:36.210Z,86.43
2023-01-29T17:21:37.737Z,86.34
2023-01-29T17:26:40.017Z,86.00
2023-01-29T17:31:42.864Z,85.19
2023-01-29T17:36:45.154Z,85.21
2023-01-29T17:41:52.651Z,85.44
2023-01-29T17:46:55.711Z,86.10
2023-01-29T17:51:57.706Z,85.87
2023-01-29T17:56:59.571Z,85.88
2023-01-29T18:02:01.220Z,85.52
2023-01-29T18:07:02.806Z,85.13
2023-01-29T18:12:10.297Z,85.70
2023-01-29T18:17:11.842Z,85.78
2023-01-29T18:22:14.049Z,85.34
2023-01-29T18:27:15.752Z,85.42
2023-01-29T18:32:17.642Z,85.73
2023-01-29T18:37:19.341Z,86.01
2023-01-29T18:42:21.068Z,85.93
2023-01-29T18:47:23.718Z,85.46
2023-01-29T18:52:26.191Z,85.43
2023-01-29T18:58:28.577Z,85.77
2023-01-29T19:02:50.804Z,85.84
2023-01-29T19:07:52.468Z,85.31
2023-01-29T19:12:54.157Z,85.14
2023-01-29T19:17:56.454Z,85.47
2023-01-29T19:22:58.329Z,85.48
2023-01-29T19:27:59.957Z,85.04
2023-01-29T19:33:01.615Z,84.70
2023-01-29T19:38:04.698Z,84.70
2023-01-29T19:43:06.436Z,85.02
2023-01-29T19:48:08.304Z,85.39
2023-01-29T19:53:10.051Z,84.96
2023-01-29T19:58:11.616Z,84.81
2023-01-29T20:03:15.356Z,84.32
2023-01-29T20:08:17.563Z,84.76
2023-01-29T20:13:19.568Z,84.82
2023-01-29T20:18:21.784Z,84.57
2023-01-29T20:23:37.291Z,84.95
2023-01-29T20:28:39.840Z,85.67
2023-01-29T20:33:41.878Z,85.76
2023-01-29T20:38:43.450Z,85.18
2023-01-29T20:43:46.915Z,84.69
2023-01-29T20:48:49.477Z,84.65
2023-01-29T20:53:51.385Z,84.81
2023-01-29T20:58:53.068Z,85.04
2023-01-29T21:03:54.544Z,85.12
2023-01-29T21:08:56.095Z,85.10
2023-01-29T21:13:57.895Z,84.92
2023-01-29T21:19:00.032Z,85.09
2023-01-29T21:24:01.624Z,84.73
2023-01-29T21:29:03.170Z,85.24
2023-01-29T21:34:05.217Z,85.53
2023-01-29T21:39:16.805Z,85.83
2023-01-29T21:44:18.319Z,85.94
2023-01-29T21:49:19.964Z,85.86
2023-01-29T21:54:21.479Z,85.77
2023-01-29T21:59:24.069Z,85.31
2023-01-29T22:04:26.645Z,85.75
2023-01-29T22:09:28.176Z,86.23
2023-01-29T22:14:29.753Z,86.99
2023-01-29T22:19:31.262Z,87.41
2023-01-29T22:24:33.047Z,87.77
2023-01-29T22:29:35.045Z,88.06
2023-01-29T22:34:36.995Z,88.32
2023-01-29T22:39:38.492Z,88.82
2023-01-29T22:44:40.352Z,89.00
2023-01-29T22:49:42.775Z,89.04
2023-01-29T22:54:44.536Z,88.64
2023-01-29T22:59:46.094Z,88.71
2023-01-29T23:04:47.645Z,89.01
2023-01-29T23:09:49.178Z,88.68
2023-01-29T23:14:50.679Z,88.64
2023-01-29T23:19:52.191Z,88.55
2023-01-29T23:24:53.722Z,88.71
2023-01-29T23:29:55.334Z,88.63
2023-01-29T23:34:57.115Z,88.61
2023-01-29T23:39:58.603Z,88.31
2023-01-29T23:45:00.144Z,88.25
2023-01-29T23:50:01.796Z,88.44
2023-01-29T23:55:05.035Z,88.50
